Time;durP1;ratioP1;P1;durP2;ratioP2;P2;SDS_P1;SDS_P2;PMS_P1;PMS_P2;Temp;Humidity;BMP_temperature;BMP_pressure;BME280_temperature;BME280_humidity;BME280_pressure;Samples;Min_cycle;Max_cycle;Signal;HPM_P1;HPM_P2
2023/06/06 00:05:07;;;;;;;4.30;2.60;;;;;;;16.92;57.12;99245.39;271190;1256;22560;-84
2023/06/06 00:11:49;;;;;;;4.60;2.60;;;;;;;16.83;57.32;99242.00;271748;1265;22285;-83
2023/06/06 00:18:32;;;;;;;6.20;3.00;;;;;;;16.74;57.55;99235.70;272292;1265;22470;-84
2023/06/06 00:24:54;;;;;;;7.80;2.90;;;;;;;16.66;57.99;99232.39;272846;1265;22765;-83
2023/06/06 00:30:56;;;;;;;8.80;2.70;;;;;;;16.62;58.20;99228.00;273768;1250;23035;-83
2023/06/06 00:36:57;;;;;;;7.40;2.70;;;;;;;16.58;58.40;99227.57;274184;1249;22419;-83
2023/06/06 00:42:59;;;;;;;6.30;3.00;;;;;;;16.54;58.53;99223.58;273942;1265;22411;-83
2023/06/06 00:49:01;;;;;;;8.80;3.10;;;;;;;16.48;58.81;99217.55;273743;1265;22971;-84
2023/06/06 00:55:03;;;;;;;6.80;2.90;;;;;;;16.40;59.05;99217.27;270233;1255;22567;-83
2023/06/06 01:01:06;;;;;;;4.90;2.60;;;;;;;16.35;59.17;99225.30;271527;1256;23138;-83
2023/06/06 01:07:09;;;;;;;6.90;3.30;;;;;;;16.30;59.42;99227.54;270622;1259;22826;-83
2023/06/06 01:13:47;;;;;;;5.30;2.70;;;;;;;16.21;59.71;99220.92;274055;1265;22272;-84
2023/06/06 01:19:56;;;;;;;9.20;3.80;;;;;;;16.06;60.11;99217.47;273040;1266;22399;-83
2023/06/06 01:26:04;;;;;;;4.40;2.60;;;;;;;15.98;60.36;99217.23;274176;1265;22210;-84
2023/06/06 01:32:36;;;;;;;6.20;2.50;;;;;;;15.93;60.36;99221.20;274077;1265;24023;-84
2023/06/06 01:39:03;;;;;;;8.50;2.70;;;;;;;15.88;60.82;99220.45;273624;1259;22558;-83
2023/06/06 01:45:28;;;;;;;6.50;2.80;;;;;;;15.82;60.80;99224.59;273301;1265;22552;-84
2023/06/06 01:51:30;;;;;;;5.30;2.80;;;;;;;15.77;61.11;99220.67;274204;1266;22357;-84
2023/06/06 01:57:33;;;;;;;3.70;2.50;;;;;;;15.72;61.31;99221.34;274093;1266;22461;-83
2023/06/06 02:03:36;;;;;;;4.90;2.60;;;;;;;15.65;61.43;99223.17;274032;1264;22208;-84
2023/06/06 02:09:38;;;;;;;5.70;2.90;;;;;;;15.58;61.58;99216.92;274173;1266;22270;-84
2023/06/06 02:15:46;;;;;;;6.10;2.50;;;;;;;15.51;61.62;99220.34;273463;1268;22438;-84
2023/06/06 02:21:49;;;;;;;8.50;3.30;;;;;;;15.44;61.70;99219.42;274119;1258;22211;-84
2023/06/06 02:27:51;;;;;;;8.70;3.20;;;;;;;15.37;61.80;99223.14;274066;1259;22460;-84
2023/06/06 02:33:53;;;;;;;9.20;3.00;;;;;;;15.29;62.00;99223.81;271436;1265;22531;-83
2023/06/06 02:39:56;;;;;;;6.20;2.90;;;;;;;15.22;62.23;99220.52;271881;1266;22609;-83
2023/06/06 02:46:53;;;;;;;5.50;3.00;;;;;;;15.15;62.32;99226.46;271317;1256;22513;-84
2023/06/06 02:53:15;;;;;;;7.40;3.00;;;;;;;15.05;62.64;99230.11;270987;1266;22579;-83
2023/06/06 02:59:21;;;;;;;8.70;3.10;;;;;;;14.97;63.08;99231.79;271493;1255;22178;-84
2023/06/06 03:05:28;;;;;;;5.00;2.90;;;;;;;14.90;63.26;99232.05;273704;1259;22361;-86
2023/06/06 03:11:31;;;;;;;7.80;3.20;;;;;;;14.83;63.57;99228.37;272849;1265;22415;-84
2023/06/06 03:18:20;;;;;;;4.30;3.00;;;;;;;14.79;63.81;99229.55;273603;1265;22217;-84
2023/06/06 03:24:45;;;;;;;4.40;2.90;;;;;;;14.74;64.12;99228.00;273563;1269;22408;-84
2023/06/06 03:30:47;;;;;;;6.30;3.10;;;;;;;14.70;64.32;99227.05;271999;1259;22633;-85
2023/06/06 03:36:52;;;;;;;7.40;2.90;;;;;;;14.67;64.68;99225.02;272982;1257;23637;-85
2023/06/06 03:42:54;;;;;;;9.20;3.40;;;;;;;14.66;64.98;99226.43;273338;1269;22938;-83
2023/06/06 03:48:56;;;;;;;8.00;3.20;;;;;;;14.65;65.07;99222.11;273523;1258;22582;-83
2023/06/06 03:55:07;;;;;;;8.90;3.30;;;;;;;14.64;65.26;99221.47;273300;1269;22250;-84
2023/06/06 04:01:10;;;;;;;5.40;2.90;;;;;;;14.63;65.55;99220.84;273871;1260;22377;-83
2023/06/06 04:07:36;;;;;;;5.90;3.00;;;;;;;14.64;65.94;99215.73;273724;1255;22432;-85
2023/06/06 04:13:38;;;;;;;7.50;3.50;;;;;;;14.69;66.27;99216.66;271200;1257;22399;-82
2023/06/06 04:19:42;;;;;;;22.70;3.70;;;;;;;14.74;66.42;99220.27;274037;1253;23261;-85
2023/06/06 04:26:31;;;;;;;12.70;3.90;;;;;;;14.81;66.51;99220.57;274011;1268;22431;-83
2023/06/06 04:40:50;;;;;;;8.50;3.40;;;;;;;14.99;66.83;99213.74;272517;1272;22495;-84
2023/06/06 04:47:00;;;;;;;7.10;3.80;;;;;;;15.04;66.73;99215.39;273607;1266;128204;-85
2023/06/06 04:53:01;;;;;;;10.90;3.70;;;;;;;15.08;66.73;99216.88;273197;1267;22395;-83
2023/06/06 04:59:28;;;;;;;7.30;3.70;;;;;;;15.15;67.23;99213.21;273849;1266;22257;-83
2023/06/06 05:05:40;;;;;;;8.00;3.90;;;;;;;15.26;67.43;99208.92;273860;1267;22412;-84
2023/06/06 05:11:46;;;;;;;6.70;3.40;;;;;;;15.40;67.54;99209.59;273214;1266;22412;-83
2023/06/06 05:17:57;;;;;;;6.60;4.20;;;;;;;15.53;67.52;99209.68;273523;1267;22390;-84
2023/06/06 05:24:00;;;;;;;8.80;4.00;;;;;;;15.72;67.50;99206.50;273382;1267;23600;-83
2023/06/06 05:37:36;;;;;;;7.30;4.10;;;;;;;15.98;66.54;99208.30;273352;1267;23764;-84
2023/06/06 05:43:38;;;;;;;5.10;3.80;;;;;;;16.04;66.58;99203.69;273291;1258;23164;-82
2023/06/06 05:50:06;;;;;;;10.40;4.50;;;;;;;16.14;66.70;99202.27;273039;1268;23578;-84
2023/06/06 05:56:30;;;;;;;10.60;4.30;;;;;;;16.29;66.59;99206.64;272927;1267;23027;-84
2023/06/06 06:02:53;;;;;;;6.80;4.20;;;;;;;16.41;66.72;99206.63;273386;1270;22331;-83
2023/06/06 06:09:36;;;;;;;12.60;4.50;;;;;;;16.52;66.16;99211.04;273308;1266;22393;-84
2023/06/06 06:15:38;;;;;;;10.90;4.40;;;;;;;16.67;66.07;99216.66;273182;1262;22545;-85
2023/06/06 06:21:40;;;;;;;6.60;3.40;;;;;;;16.90;66.25;99218.16;273543;1260;22960;-83
2023/06/06 06:27:43;;;;;;;7.80;4.30;;;;;;;17.15;66.07;99222.06;273450;1261;22386;-84
2023/06/06 06:33:48;;;;;;;7.10;4.00;;;;;;;17.34;65.75;99227.92;273780;1266;22172;-83
2023/06/06 06:39:49;;;;;;;12.40;4.20;;;;;;;17.39;65.24;99224.05;273756;1267;23600;-83
2023/06/06 06:52:57;;;;;;;8.10;4.10;;;;;;;17.48;65.40;99217.34;272844;1261;23002;-84
2023/06/06 06:59:41;;;;;;;9.70;4.10;;;;;;;17.52;65.50;99217.52;273662;1266;22442;-83
2023/06/06 07:06:25;;;;;;;8.70;4.10;;;;;;;17.55;65.42;99213.38;273995;1267;22378;-83
2023/06/06 07:12:29;;;;;;;11.60;4.50;;;;;;;17.58;65.71;99213.48;273606;1268;22424;-84
2023/06/06 07:18:32;;;;;;;7.80;4.50;;;;;;;17.64;65.82;99212.55;273494;1269;22448;-82
2023/06/06 07:24:56;;;;;;;9.10;4.10;;;;;;;17.71;65.63;99211.16;273522;1266;23063;-83
2023/06/06 07:31:05;;;;;;;8.90;4.80;;;;;;;17.82;65.30;99210.14;273862;1265;22369;-83
2023/06/06 07:37:31;;;;;;;11.20;4.20;;;;;;;17.92;65.22;99208.25;273901;1267;22509;-84
2023/06/06 07:43:54;;;;;;;7.30;4.30;;;;;;;18.02;65.49;99204.30;272892;1270;22302;-83
2023/06/06 07:49:59;;;;;;;9.20;4.50;;;;;;;18.10;65.33;99203.70;273662;1260;22346;-83
2023/06/06 07:56:01;;;;;;;12.30;4.30;;;;;;;18.22;65.38;99205.64;273566;1267;23148;-83
2023/06/06 08:02:04;;;;;;;12.60;4.00;;;;;;;18.39;65.06;99207.84;273762;1266;22335;-83
2023/06/06 08:08:32;;;;;;;11.50;3.70;;;;;;;18.61;64.88;99203.59;273600;1266;22370;-86
2023/06/06 08:14:35;;;;;;;10.10;3.70;;;;;;;18.93;64.55;99194.20;273672;1267;22360;-84
2023/06/06 08:20:36;;;;;;;17.70;4.30;;;;;;;19.31;64.27;99185.27;273663;1267;22481;-84
2023/06/06 08:26:38;;;;;;;11.00;4.30;;;;;;;19.69;63.70;99178.65;273768;1266;23266;-86
2023/06/06 08:32:43;;;;;;;10.50;3.60;;;;;;;19.94;62.96;99185.23;273791;1260;22340;-84
2023/06/06 08:38:45;;;;;;;10.20;4.40;;;;;;;20.29;61.81;99188.50;273766;1267;22858;-84
2023/06/06 08:44:48;;;;;;;9.90;4.00;;;;;;;20.63;61.58;99191.46;273750;1261;22173;-84
2023/06/06 08:50:50;;;;;;;10.40;4.20;;;;;;;20.80;61.32;99191.09;273810;1267;22877;-83
2023/06/06 08:56:59;;;;;;;13.40;4.30;;;;;;;20.76;60.37;99194.53;273822;1267;22731;-84
2023/06/06 09:03:03;;;;;;;11.40;4.90;;;;;;;20.59;59.62;99195.48;273768;1267;22500;-83
2023/06/06 09:09:07;;;;;;;9.80;4.00;;;;;;;20.60;59.78;99193.29;273742;1267;22412;-83
2023/06/06 09:15:10;;;;;;;10.10;4.50;;;;;;;20.69;59.64;99198.62;273464;1260;22415;-84
2023/06/06 09:21:12;;;;;;;11.90;4.80;;;;;;;20.76;59.35;99195.16;273872;1267;22343;-84
2023/06/06 09:27:28;;;;;;;11.70;4.00;;;;;;;20.78;59.61;99192.88;273758;1267;22450;-84
2023/06/06 09:33:32;;;;;;;12.10;4.30;;;;;;;20.81;59.92;99191.54;273026;1266;23706;-84
2023/06/06 09:39:33;;;;;;;6.50;4.00;;;;;;;20.83;60.18;99192.84;272629;1261;22291;-83
2023/06/06 09:45:47;;;;;;;8.10;4.10;;;;;;;20.89;60.54;99203.70;273788;1266;22402;-84
2023/06/06 09:51:55;;;;;;;9.80;4.60;;;;;;;20.85;60.01;99209.47;273871;1257;22407;-84
2023/06/06 09:58:22;;;;;;;10.90;4.30;;;;;;;20.79;60.28;99210.18;271463;1267;25262;-83
2023/06/06 10:04:25;;;;;;;9.50;4.70;;;;;;;20.69;60.66;99211.83;271185;1267;22635;-84
2023/06/06 10:10:46;;;;;;;10.50;5.10;;;;;;;20.46;61.55;99215.99;271660;1266;22431;-85
2023/06/06 10:16:48;;;;;;;9.60;5.50;;;;;;;20.28;62.97;99214.27;273932;1261;23514;-84
2023/06/06 10:23:41;;;;;;;12.50;6.80;;;;;;;20.17;64.35;99221.53;273935;1266;22218;-84
2023/06/06 10:30:09;;;;;;;9.70;5.70;;;;;;;20.01;66.54;99215.05;272090;1266;22604;-84
2023/06/06 10:37:03;;;;;;;13.20;6.20;;;;;;;19.92;68.81;99217.24;270544;1266;23087;-85
2023/06/06 10:43:10;;;;;;;44.40;21.90;;;;;;;19.76;69.33;99216.74;270357;1258;22642;-84
2023/06/06 10:49:13;;;;;;;30.70;15.20;;;;;;;19.60;69.51;99222.42;270849;1265;22632;-84
2023/06/06 10:56:05;;;;;;;18.30;9.50;;;;;;;19.49;70.60;99222.57;272454;1266;22443;-84
2023/06/06 11:09:54;;;;;;;14.80;9.50;;;;;;;19.37;73.08;99232.65;273601;1265;23427;-85
2023/06/06 11:15:56;;;;;;;14.70;8.40;;;;;;;19.34;74.25;99235.89;273671;1265;23372;-84
2023/06/06 11:21:59;;;;;;;14.10;7.50;;;;;;;19.32;75.39;99233.80;273940;1266;23446;-85
2023/06/06 11:28:01;;;;;;;8.30;5.90;;;;;;;19.25;75.75;99234.70;274016;1259;22377;-85
2023/06/06 11:34:10;;;;;;;10.50;6.00;;;;;;;19.17;75.83;99237.48;273960;1265;22481;-87
2023/06/06 11:40:12;;;;;;;9.50;6.10;;;;;;;19.08;76.30;99237.41;272760;1266;22383;-85
2023/06/06 11:46:30;;;;;;;12.90;6.30;;;;;;;19.00;76.58;99232.02;273101;1265;22583;-86
2023/06/06 11:52:50;;;;;;;9.20;6.10;;;;;;;18.95;77.36;99232.19;271517;1265;22336;-86
2023/06/06 11:59:08;;;;;;;9.40;5.90;;;;;;;18.94;77.74;99235.45;273749;1266;22703;-85
2023/06/06 12:06:30;;;;;;;;;;;;;;;18.91;78.61;99233.46;270077;1268;22522;-85
2023/06/06 12:12:51;;;;;;;9.00;5.70;;;;;;;18.85;79.23;99231.67;271795;1268;22783;-85
2023/06/06 12:19:19;;;;;;;7.50;5.70;;;;;;;18.86;79.63;99229.75;272598;1269;22659;-85
2023/06/06 12:25:41;;;;;;;9.00;5.90;;;;;;;18.88;80.33;99225.27;272170;1268;22460;-84
2023/06/06 12:31:45;;;;;;;7.50;6.10;;;;;;;18.88;80.72;99223.61;273438;1268;22882;-85
2023/06/06 12:37:55;;;;;;;9.20;5.70;;;;;;;18.92;80.70;99213.23;273652;1260;23625;-85
2023/06/06 12:43:57;;;;;;;9.20;6.60;;;;;;;19.00;81.44;99211.09;274025;1266;22208;-85
2023/06/06 12:50:00;;;;;;;8.80;5.00;;;;;;;19.10;82.18;99202.24;272465;1266;23494;-86
2023/06/06 12:56:03;;;;;;;7.50;5.50;;;;;;;19.16;81.13;99194.05;271598;1267;22545;-85
2023/06/06 13:02:06;;;;;;;11.40;5.30;;;;;;;19.31;81.93;99191.77;271590;1266;22634;-85
2023/06/06 13:08:39;;;;;;;9.00;5.60;;;;;;;19.41;81.79;99187.61;272388;1266;22455;-84
2023/06/06 13:22:04;;;;;;;9.70;5.90;;;;;;;19.38;81.59;99180.20;274050;1266;22392;-86
2023/06/06 13:28:19;;;;;;;11.20;6.00;;;;;;;19.28;81.05;99176.70;273649;1261;23486;-84
2023/06/06 13:34:21;;;;;;;6.90;5.20;;;;;;;19.26;81.80;99168.39;273409;1269;22399;-85
2023/06/06 13:40:23;;;;;;;8.40;5.20;;;;;;;19.25;81.48;99165.64;272457;1269;22234;-85
2023/06/06 13:46:28;;;;;;;9.50;4.70;;;;;;;19.25;81.90;99161.90;272230;1266;22677;-85
2023/06/06 13:52:49;;;;;;;7.30;5.10;;;;;;;19.28;81.89;99158.84;271847;1259;22585;-84
2023/06/06 13:59:12;;;;;;;9.20;5.40;;;;;;;19.35;82.44;99153.38;272477;1266;22580;-84
2023/06/06 14:05:34;;;;;;;6.70;5.20;;;;;;;19.41;81.92;99151.53;272501;1266;24247;-85
2023/06/06 14:11:40;;;;;;;9.80;5.00;;;;;;;19.43;82.05;99146.17;272869;1266;22260;-85
2023/06/06 14:17:42;;;;;;;7.20;4.50;;;;;;;19.45;81.72;99143.81;273349;1266;22327;-84
2023/06/06 14:23:47;;;;;;;8.50;5.60;;;;;;;19.45;82.22;99140.80;273378;1260;22362;-86
2023/06/06 14:29:51;;;;;;;8.50;5.00;;;;;;;19.49;82.25;99139.05;273275;1266;23069;-85
2023/06/06 14:36:05;;;;;;;6.30;5.20;;;;;;;19.50;82.20;99133.63;273323;1266;23239;-86
2023/06/06 14:42:07;;;;;;;8.90;5.20;;;;;;;19.53;81.95;99131.19;273360;1267;22414;-85
2023/06/06 14:48:32;;;;;;;11.70;5.20;;;;;;;19.55;82.07;99118.92;273675;1266;23985;-84
2023/06/06 14:54:36;;;;;;;9.90;5.40;;;;;;;19.51;82.19;99119.40;272960;1266;22403;-86
2023/06/06 15:00:37;;;;;;;15.20;5.60;;;;;;;19.48;81.45;99117.55;272957;1265;22387;-86
2023/06/06 15:06:40;;;;;;;7.30;5.40;;;;;;;19.46;81.29;99107.77;273052;1266;22446;-88
2023/06/06 15:12:42;;;;;;;8.30;5.70;;;;;;;19.46;81.68;99105.72;273015;1258;22400;-85
2023/06/06 15:18:46;;;;;;;7.50;5.80;;;;;;;19.50;81.95;99104.34;272674;1258;23926;-86
2023/06/06 15:24:51;;;;;;;11.90;6.10;;;;;;;19.55;82.01;99101.39;273105;1265;22402;-86
2023/06/06 15:31:14;;;;;;;8.70;5.90;;;;;;;19.59;81.97;99094.54;273279;1267;22371;-85
2023/06/06 15:53:25;;;;;;;12.30;5.50;;;;;;;19.73;82.41;99086.27;273502;1269;22309;-85
2023/06/06 16:00:22;;;;;;;8.80;5.20;;;;;;;19.79;82.46;99084.94;273621;1268;22426;-85
2023/06/06 16:07:04;;;;;;;11.80;5.60;;;;;;;19.90;83.02;99078.80;271821;1271;24242;-85
2023/06/06 16:13:07;;;;;;;10.60;6.10;;;;;;;19.93;83.00;99078.31;271709;1271;23693;-85
2023/06/06 16:19:09;;;;;;;12.20;5.70;;;;;;;19.96;83.15;99076.97;272453;1260;23169;-86
2023/06/06 16:25:12;;;;;;;12.00;6.30;;;;;;;19.97;82.19;99079.88;272644;1266;22633;-85
2023/06/06 16:31:14;;;;;;;13.80;6.00;;;;;;;19.99;81.52;99078.88;273472;1266;23755;-85
2023/06/06 16:37:19;;;;;;;20.10;6.30;;;;;;;19.97;81.02;99075.36;273402;1263;22357;-86
2023/06/06 16:43:21;;;;;;;11.40;6.40;;;;;;;19.91;80.75;99070.04;273135;1267;268759;-86
2023/06/06 16:49:23;;;;;;;10.30;6.20;;;;;;;19.85;80.56;99071.45;273369;1267;22378;-85
2023/06/06 16:55:26;;;;;;;13.00;7.00;;;;;;;19.79;80.41;99072.63;273371;1266;23286;-85
2023/06/06 17:01:29;;;;;;;12.00;7.20;;;;;;;19.74;80.59;99071.65;273483;1266;22410;-87
2023/06/06 17:07:31;;;;;;;14.50;6.50;;;;;;;19.65;80.63;99071.86;273348;1266;22434;-86
2023/06/06 17:13:35;;;;;;;13.70;6.90;;;;;;;19.57;80.56;99069.29;273564;1262;23636;-85
2023/06/06 17:19:36;;;;;;;13.20;5.80;;;;;;;19.51;80.36;99063.23;272759;1266;23622;-85
2023/06/06 17:25:39;;;;;;;11.90;6.70;;;;;;;19.47;80.44;99063.59;273326;1266;22362;-86
2023/06/06 17:31:40;;;;;;;14.10;7.00;;;;;;;19.41;80.35;99061.73;273536;1267;22427;-86
2023/06/06 17:37:43;;;;;;;15.30;7.70;;;;;;;19.34;80.41;99064.35;272668;1266;22654;-86
2023/06/06 17:43:45;;;;;;;15.50;7.50;;;;;;;19.30;80.25;99067.63;272630;1267;22445;-86
2023/06/06 17:49:47;;;;;;;15.60;7.50;;;;;;;19.25;80.22;99067.23;272764;1266;22550;-86
2023/06/06 17:55:53;;;;;;;12.70;7.70;;;;;;;19.19;80.10;99068.96;272306;1266;22590;-86
2023/06/06 18:01:55;;;;;;;15.00;8.70;;;;;;;19.12;80.42;99067.28;273655;1267;23673;-85
2023/06/06 18:07:57;;;;;;;12.90;7.30;;;;;;;19.08;80.50;99068.01;273594;1266;22412;-86
2023/06/06 18:14:00;;;;;;;19.80;8.70;;;;;;;19.06;80.75;99071.84;273480;1258;22252;-86
2023/06/06 18:20:04;;;;;;;16.60;8.10;;;;;;;19.04;80.79;99075.95;273362;1266;22375;-86
2023/06/06 18:26:07;;;;;;;17.40;9.10;;;;;;;19.00;80.88;99075.39;273333;1266;22245;-85
2023/06/06 18:32:10;;;;;;;19.00;9.90;;;;;;;18.95;80.92;99082.31;273378;1256;23732;-85
2023/06/06 18:38:41;;;;;;;16.70;9.50;;;;;;;18.92;80.90;99089.85;273511;1266;22212;-86
2023/06/06 18:45:05;;;;;;;13.30;9.30;;;;;;;18.87;81.08;99086.70;273726;1262;22308;-86
2023/06/06 18:59:53;;;;;;;17.40;10.80;;;;;;;18.66;81.77;99091.55;273726;1266;22399;-85
2023/06/06 19:13:21;;;;;;;18.80;10.20;;;;;;;18.46;82.38;99107.23;273447;1267;23420;-86
2023/06/06 19:19:32;;;;;;;10.50;7.50;;;;;;;18.38;82.71;99109.90;273325;1266;23642;-86
2023/06/06 19:25:35;;;;;;;18.80;8.70;;;;;;;18.32;83.15;99112.92;273471;1259;22374;-86
2023/06/06 19:31:37;;;;;;;12.50;7.50;;;;;;;18.24;83.54;99117.89;273495;1268;22448;-86
2023/06/06 19:37:39;;;;;;;10.20;7.20;;;;;;;18.19;83.87;99113.16;273333;1266;22430;-87
2023/06/06 19:43:47;;;;;;;9.90;7.00;;;;;;;18.17;84.20;99110.89;273389;1267;22829;-86
2023/06/06 19:50:14;;;;;;;;;;;;;;;18.13;84.57;99111.67;273467;1268;23781;-86
2023/06/06 19:56:20;;;;;;;10.70;8.80;;;;;;;18.08;85.16;99113.49;273667;1266;23479;-86
2023/06/06 20:02:51;;;;;;;9.80;8.30;;;;;;;18.04;85.59;99117.21;273560;1267;22425;-86
2023/06/06 20:09:18;;;;;;;12.90;8.00;;;;;;;18.00;85.99;99116.10;273729;1257;22340;-85
2023/06/06 20:15:59;;;;;;;9.80;7.30;;;;;;;17.95;86.41;99112.14;273721;1267;22437;-85
2023/06/06 20:22:27;;;;;;;8.60;6.30;;;;;;;17.90;86.58;99115.15;273368;1266;22559;-85
2023/06/06 20:28:29;;;;;;;12.80;7.20;;;;;;;17.85;86.94;99111.29;273208;1266;22402;-85
2023/06/06 20:34:31;;;;;;;8.20;6.20;;;;;;;17.77;87.41;99111.02;273268;1266;22526;-86
2023/06/06 20:40:33;;;;;;;9.20;6.20;;;;;;;17.70;88.02;99109.94;272869;1268;22438;-84
2023/06/06 20:46:35;;;;;;;11.50;6.50;;;;;;;17.67;88.29;99108.88;273043;1268;24932;-85
2023/06/06 20:52:40;;;;;;;8.40;6.30;;;;;;;17.67;88.70;99111.24;273107;1267;22436;-85
2023/06/06 20:58:42;;;;;;;9.80;7.00;;;;;;;17.65;88.97;99110.25;272972;1267;22413;-86
2023/06/06 21:04:44;;;;;;;10.00;7.30;;;;;;;17.63;89.55;99110.53;273288;1267;22364;-86
2023/06/06 21:10:47;;;;;;;10.80;8.50;;;;;;;17.59;90.01;99115.26;273135;1266;22382;-88
2023/06/06 21:16:49;;;;;;;12.60;8.60;;;;;;;17.54;90.52;99116.43;273256;1266;22162;-86
2023/06/06 21:22:54;;;;;;;11.60;8.30;;;;;;;17.51;91.10;99114.11;273481;1266;22442;-86
2023/06/06 21:28:56;;;;;;;11.50;9.10;;;;;;;17.46;91.52;99110.53;273454;1267;22362;-85
2023/06/06 21:34:58;;;;;;;13.00;8.90;;;;;;;17.42;92.24;99107.89;273593;1256;22589;-85
2023/06/06 21:40:59;;;;;;;11.80;9.20;;;;;;;17.38;92.87;99107.72;273564;1268;23475;-85
2023/06/06 21:47:01;;;;;;;14.10;10.10;;;;;;;17.33;93.30;99105.96;273654;1256;22243;-85
2023/06/06 21:53:03;;;;;;;15.10;11.00;;;;;;;17.28;93.85;99108.40;273312;1267;22493;-86
2023/06/06 21:59:05;;;;;;;14.60;10.40;;;;;;;17.23;94.42;99116.46;273369;1267;22438;-87
2023/06/06 22:05:10;;;;;;;17.60;10.50;;;;;;;17.17;94.70;99117.08;273521;1266;22378;-86
2023/06/06 22:11:12;;;;;;;12.10;10.00;;;;;;;17.12;95.30;99115.56;273400;1266;22388;-86
2023/06/06 22:17:16;;;;;;;13.80;10.90;;;;;;;17.06;95.57;99111.23;273575;1256;22962;-86
2023/06/06 22:23:21;;;;;;;13.20;11.00;;;;;;;17.01;96.19;99111.61;273413;1266;23186;-85
2023/06/06 22:29:22;;;;;;;15.70;10.60;;;;;;;16.95;96.42;99111.92;273504;1267;22414;-86
2023/06/06 22:35:49;;;;;;;16.90;10.80;;;;;;;16.89;96.98;99105.12;273503;1267;22390;-85
2023/06/06 22:41:50;;;;;;;14.70;10.60;;;;;;;16.85;97.39;99102.02;273480;1261;22469;-85
2023/06/06 22:47:52;;;;;;;16.90;10.70;;;;;;;16.81;97.81;99099.20;273320;1257;22572;-85
2023/06/06 22:53:54;;;;;;;15.20;11.90;;;;;;;16.77;98.11;99091.22;273398;1267;23661;-86
2023/06/06 22:59:56;;;;;;;12.70;11.00;;;;;;;16.74;98.72;99085.17;272813;1266;23740;-85
2023/06/06 23:05:58;;;;;;;18.80;14.10;;;;;;;16.71;99.23;99080.40;271878;1268;22557;-86
2023/06/06 23:12:00;;;;;;;16.60;12.90;;;;;;;16.69;99.50;99077.50;272203;1267;22473;-86
2023/06/06 23:18:02;;;;;;;19.10;14.80;;;;;;;16.67;99.57;99079.09;273401;1267;22396;-86
2023/06/06 23:24:04;;;;;;;18.30;14.00;;;;;;;16.63;99.64;99078.59;273428;1266;22956;-86
2023/06/06 23:30:10;;;;;;;17.40;12.90;;;;;;;16.58;99.79;99069.80;273236;1270;22458;-86
2023/06/06 23:36:14;;;;;;;16.80;13.20;;;;;;;16.57;99.96;99067.85;273041;1267;22708;-84
2023/06/06 23:42:17;;;;;;;14.80;12.40;;;;;;;16.57;100.00;99071.02;273270;1267;22695;-84
2023/06/06 23:48:18;;;;;;;14.00;11.60;;;;;;;16.54;100.00;99067.64;272850;1266;22647;-87
2023/06/06 23:54:20;;;;;;;14.20;11.30;;;;;;;16.52;100.00;99063.32;273596;1266;22449;-86
